• Join FlightAware (Why Join?)
  • Login
  • US Flag 
11:58PM EDT


 

Airport Tracker/Info


-or-


 

Live Flight TrackerFlight Track Log ✈ EJA933 ✈ 17-Jun-2013 ✈ KSEA - KCOE

Flight Track Log - Related Links

Times and Time Zones

All times are in EDT time to prevent confusion due to time zone crossing. See the EJA933 flight status page for this flight to view local times or setup timezone preferences in your user account.

Time Position Orientation Groundspeed Altitude Reporting Facility
EDT Latitude Longitude Course Direction KTS MPH feet Rate Location/Type
01:41PM 47.4392 -122.3083 183° South 176 203 1,400  Level Seattle Center
01:41PM 47.4042 -122.3111 183° South 203 234 4,000 4,800 Climbing Seattle Center
01:42PM 47.3647 -122.3100 179° South 227 261 7,200 5,280 Climbing Seattle Center
01:42PM 47.3306 -122.2831 152° Southeast 271 312 9,900 4,020 Climbing Seattle Center
01:43PM 47.3244 -122.2336 100° East 275 316 11,300 2,340 Climbing Seattle Center
01:43PM 47.3333 -122.1636 79° East 337 388 12,300 2,220 Climbing Seattle Center
01:44PM 47.3500 -122.0908 71° East 343 395 13,600 1,860 Climbing Seattle Center
01:45PM 47.3822 -121.9439 72° East 376 433 15,200 2,400 Climbing Seattle Center
01:46PM 47.4122 -121.8044 72° East 374 430 18,500 3,000 Climbing Seattle Center
01:47PM 47.4303 -121.6561 80° East 373 429 21,300 2,160 Climbing Seattle Center
01:48PM 47.4267 -121.4986 92° East 387 445 23,000 780 Climbing Seattle Center
01:49PM 47.4239 -121.3214 91° East 430 495 23,000  Level Seattle Center
01:50PM 47.4194 -121.0908 92° East 471 542 23,000  Level Seattle Center
01:51PM 47.4161 -120.8922 91° East 488 562 23,000  Level Seattle Center
01:52PM 47.4114 -120.7114 92° East 487 560 23,000  Level Seattle Center
01:53PM 47.4072 -120.5131 92° East 484 557 23,000  Level Seattle Center
01:54PM 47.4033 -120.3103 92° East 494 568 23,000  Level Seattle Center
01:55PM 47.4003 -120.1064 91° East 498 573 23,000  Level Seattle Center
01:56PM 47.3925 -119.8889 93° East 451 519 23,000  Level Seattle Center
01:57PM 47.3875 -119.7006 92° East 462 532 23,000  Level Seattle Center
01:58PM 47.3828 -119.5089 92° East 470 541 23,000  Level Seattle Center
01:59PM 47.3853 -119.3147 89° East 474 545 23,000 -240 Level Seattle Center
02:00PM 47.4072 -119.1194 81° East 479 551 22,600 -900 Descending Seattle Center
02:01PM 47.4303 -118.9247 80° East 481 554 21,200 -1,500 Descending Seattle Center
02:02PM 47.4522 -118.7397 80° East 472 543 19,600 -1,560 Descending Seattle Center
02:03PM 47.4703 -118.5608 81° East 456 525 18,100 -1,440 Descending Seattle Center
02:04PM 47.4894 -118.3847 81° East 438 504 16,700 -1,560 Descending Seattle Center
02:05PM 47.5064 -118.2089 82° East 433 498 15,000 -1,680 Descending Seattle Center
02:06PM 47.5247 -118.0389 81° East 421 484 13,300 -1,920 Descending Seattle Center
02:07PM 47.5439 -117.8397 82° East 407 468 11,200 -1,680 Descending Seattle Center
02:08PM 47.5603 -117.6797 81° East 396 456 10,000 -780 Descending Seattle Center
02:09PM 47.5850 -117.5575 73° East 309 356 9,700 -1,200 Descending Seattle Center
02:10PM 47.6144 -117.4486 68° East 288 331 7,600 -1,860 Descending Seattle Center
02:11PM 47.6425 -117.3394 69° East 284 327 6,000 -840 Descending Seattle Center
02:12PM 47.6722 -117.2264 69° East 278 320 6,000 -540 Level Seattle Center
02:14PM 47.7019 -117.1139 69° East 273 314 5,000 -900 Descending Seattle Center
02:15PM 47.7200 -117.0231 74° East 233 268 4,200 -600 Descending Seattle Center
02:16PM 47.7244 -116.9325 86° East 217 250 3,900 -180 Descending Seattle Center
02:17PM 47.7311 -116.8522 83° East 211 243 3,900  Level Seattle Center
02:18PM 47.7478 -116.7825 70° East 182 209 3,900 -360 Level Seattle Center
02:19PM 47.7869 -116.7567 24° Northeast 188 216 3,200 -600 Descending Seattle Center
02:20PM 47.7858 -116.8039 268° West 151 174 2,700 -540 Descending Seattle Center
02:22PM 47.7667 -116.8167 250° West  Level FlightAware Approximate